createdAt,value
2018-01-11T00:01:16.960Z,46.20
2018-01-11T00:03:45.344Z,54.03
2018-01-11T00:06:13.706Z,45.60
2018-01-11T00:08:42.056Z,41.33
2018-01-11T00:11:10.478Z,42.97
2018-01-11T00:13:38.826Z,40.30
2018-01-11T00:16:07.810Z,40.63
2018-01-11T00:18:36.181Z,35.63
2018-01-11T00:21:04.620Z,31.40
2018-01-11T00:23:33.010Z,31.67
2018-01-11T00:26:01.365Z,28.87
2018-01-11T00:28:29.732Z,29.47
2018-01-11T00:30:58.107Z,36.00
2018-01-11T00:33:26.474Z,36.63
2018-01-11T00:35:54.893Z,36.80
2018-01-11T00:38:23.262Z,33.80
2018-01-11T00:40:51.628Z,27.47
2018-01-11T00:43:19.995Z,24.00
2018-01-11T00:45:48.358Z,26.47
2018-01-11T00:48:16.761Z,34.53
2018-01-11T00:50:45.130Z,31.60
2018-01-11T00:53:13.488Z,31.40
2018-01-11T00:55:41.863Z,27.63
2018-01-11T00:58:10.284Z,29.97
2018-01-11T01:00:38.692Z,29.10
2018-01-11T01:03:07.066Z,29.47
2018-01-11T01:05:35.446Z,28.43
2018-01-11T01:08:03.811Z,32.90
2018-01-11T01:10:32.175Z,32.30
2018-01-11T01:13:00.569Z,40.83
2018-01-11T01:15:28.936Z,33.70
2018-01-11T01:17:57.307Z,34.00
2018-01-11T01:20:25.681Z,37.77
2018-01-11T01:22:54.049Z,33.37
2018-01-11T01:25:22.442Z,40.13
2018-01-11T01:27:50.811Z,31.90
2018-01-11T01:30:19.212Z,31.77
2018-01-11T01:32:47.573Z,30.13
2018-01-11T01:35:15.952Z,29.07
2018-01-11T01:37:44.379Z,30.17
2018-01-11T01:40:12.736Z,31.73
2018-01-11T01:42:41.104Z,30.53
2018-01-11T01:45:09.562Z,29.07
2018-01-11T01:47:37.967Z,31.60
2018-01-11T01:50:06.379Z,35.73
2018-01-11T01:52:34.749Z,46.80
2018-01-11T01:55:03.129Z,38.93
2018-01-11T01:57:31.501Z,53.50
2018-01-11T01:59:59.909Z,84.00
2018-01-11T02:02:28.308Z,38.00
2018-01-11T02:04:56.667Z,45.60
2018-01-11T02:07:25.044Z,36.00
2018-01-11T02:09:53.426Z,43.57
2018-01-11T02:12:21.784Z,37.17
2018-01-11T02:14:50.175Z,33.97
2018-01-11T02:17:18.553Z,35.77
2018-01-11T02:19:46.925Z,31.30
2018-01-11T02:22:15.285Z,35.90
2018-01-11T02:24:43.659Z,31.03
2018-01-11T02:27:12.063Z,29.27
2018-01-11T02:29:40.423Z,27.47
2018-01-11T02:32:08.813Z,26.30
2018-01-11T02:34:37.180Z,24.70
2018-01-11T02:37:05.600Z,27.70
2018-01-11T02:39:33.970Z,26.77
2018-01-11T02:42:02.334Z,27.57
2018-01-11T02:44:30.694Z,26.73
2018-01-11T02:46:59.060Z,32.33
2018-01-11T02:49:27.468Z,30.33
2018-01-11T02:51:55.827Z,37.80
2018-01-11T02:54:24.244Z,35.50
2018-01-11T02:56:52.614Z,36.77
2018-01-11T02:59:20.983Z,30.30
2018-01-11T03:01:49.379Z,34.27
2018-01-11T03:04:17.752Z,27.43
2018-01-11T03:06:46.107Z,29.03
2018-01-11T03:09:14.479Z,28.80
2018-01-11T03:11:42.858Z,26.47
2018-01-11T03:14:11.260Z,31.73
2018-01-11T03:16:39.661Z,28.80
2018-01-11T03:19:08.021Z,33.67
2018-01-11T03:21:36.432Z,28.90
2018-01-11T03:24:04.805Z,28.30
2018-01-11T03:26:33.233Z,26.43
2018-01-11T03:29:01.602Z,25.83
2018-01-11T03:31:29.958Z,25.93
2018-01-11T03:33:58.335Z,26.47
2018-01-11T03:36:26.683Z,27.03
2018-01-11T03:38:55.085Z,25.07
2018-01-11T03:41:23.443Z,31.30
2018-01-11T03:43:51.811Z,26.87
2018-01-11T03:46:20.199Z,31.50
2018-01-11T03:48:48.581Z,32.87
2018-01-11T03:51:16.985Z,30.10
2018-01-11T03:53:45.370Z,36.60
2018-01-11T03:58:57.715Z,39.87
2018-01-11T04:01:26.131Z,38.47
2018-01-11T04:03:54.553Z,35.97
2018-01-11T04:06:22.959Z,35.87
2018-01-11T04:08:51.331Z,39.00
2018-01-11T04:11:19.700Z,38.80
2018-01-11T04:13:48.063Z,33.77
2018-01-11T04:16:16.468Z,31.40
2018-01-11T04:18:44.838Z,37.13
2018-01-11T04:21:13.330Z,34.03
2018-01-11T04:23:41.735Z,30.50
2018-01-11T04:26:10.105Z,27.13
2018-01-11T04:28:38.506Z,24.47
2018-01-11T04:31:06.884Z,26.27
2018-01-11T04:33:35.273Z,26.33
2018-01-11T04:36:03.632Z,25.90
2018-01-11T04:38:32.005Z,22.60
2018-01-11T04:41:00.406Z,20.53
2018-01-11T04:43:28.781Z,20.97
2018-01-11T04:45:57.159Z,17.03
2018-01-11T04:48:25.615Z,18.57
2018-01-11T04:50:54.009Z,19.33
2018-01-11T04:53:22.453Z,21.80
2018-01-11T04:55:50.841Z,26.87
2018-01-11T04:58:19.190Z,30.30
2018-01-11T05:00:53.479Z,24.07
2018-01-11T05:03:21.846Z,22.70
2018-01-11T05:05:50.285Z,20.30
2018-01-11T05:08:18.649Z,22.70
2018-01-11T05:10:46.999Z,19.63
2018-01-11T05:13:15.378Z,21.73
2018-01-11T05:15:43.746Z,24.10
2018-01-11T05:18:12.149Z,24.80
2018-01-11T05:20:40.515Z,24.00
2018-01-11T05:23:08.876Z,21.00
2018-01-11T05:25:37.234Z,22.60
2018-01-11T05:28:05.616Z,20.77
2018-01-11T05:30:34.017Z,18.77
2018-01-11T05:33:02.426Z,17.67
2018-01-11T05:35:30.799Z,16.00
2018-01-11T05:37:59.150Z,13.53
2018-01-11T05:40:27.501Z,15.07
2018-01-11T05:42:55.880Z,19.00
2018-01-11T05:45:24.248Z,17.53
2018-01-11T05:47:52.612Z,16.13
2018-01-11T05:50:21.020Z,15.00
2018-01-11T05:55:33.440Z,15.73
2018-01-11T05:58:01.796Z,17.07
2018-01-11T06:00:30.215Z,15.87
2018-01-11T06:02:58.564Z,16.33
2018-01-11T06:05:26.983Z,15.50
2018-01-11T06:07:55.363Z,15.43
2018-01-11T06:10:23.724Z,16.10
2018-01-11T06:12:52.132Z,19.00
2018-01-11T06:15:20.503Z,16.70
2018-01-11T06:17:48.886Z,15.90
2018-01-11T06:20:17.246Z,19.90
2018-01-11T06:22:45.608Z,17.43
2018-01-11T06:25:13.991Z,19.27
2018-01-11T06:27:42.385Z,18.90
2018-01-11T06:30:10.741Z,18.77
2018-01-11T06:32:39.119Z,12.70
2018-01-11T06:35:07.487Z,16.13
2018-01-11T06:37:35.883Z,18.90
2018-01-11T06:40:04.282Z,17.17
2018-01-11T06:42:32.788Z,18.07
2018-01-11T06:45:01.184Z,16.07
2018-01-11T06:47:29.560Z,18.30
2018-01-11T06:49:57.965Z,14.37
2018-01-11T06:52:26.387Z,15.30
2018-01-11T06:54:54.769Z,17.50
2018-01-11T06:57:23.131Z,14.10
2018-01-11T06:59:51.534Z,15.33
2018-01-11T07:02:19.923Z,14.67
2018-01-11T07:04:48.282Z,15.00
2018-01-11T07:07:16.626Z,14.90
2018-01-11T07:09:44.976Z,15.43
2018-01-11T07:12:13.457Z,14.60
2018-01-11T07:14:41.876Z,17.00
2018-01-11T07:17:10.256Z,15.70
2018-01-11T07:19:38.616Z,21.27
2018-01-11T07:22:06.983Z,14.57
2018-01-11T07:24:35.337Z,18.73
2018-01-11T07:27:03.836Z,17.37
2018-01-11T07:29:32.195Z,16.53
2018-01-11T07:32:00.580Z,18.93
2018-01-11T07:34:28.946Z,15.87
2018-01-11T07:36:57.355Z,17.03
2018-01-11T07:39:25.719Z,16.43
2018-01-11T07:41:54.072Z,16.20
2018-01-11T07:44:22.443Z,15.17
2018-01-11T07:46:50.818Z,12.73
2018-01-11T07:49:19.201Z,14.57
2018-01-11T07:51:47.564Z,13.40
2018-01-11T07:54:15.957Z,13.57
2018-01-11T07:56:44.339Z,15.83
2018-01-11T07:59:12.687Z,18.37
2018-01-11T08:01:41.155Z,17.43
2018-01-11T08:04:09.500Z,18.30
2018-01-11T08:06:38.037Z,16.60
2018-01-11T08:09:06.382Z,17.83
2018-01-11T08:11:34.768Z,15.00
2018-01-11T08:14:03.148Z,16.43
2018-01-11T08:16:31.641Z,18.93
2018-01-11T08:19:00.903Z,16.00
2018-01-11T08:21:29.795Z,14.53
2018-01-11T08:23:58.273Z,13.97
2018-01-11T08:26:26.688Z,15.70
2018-01-11T08:28:55.093Z,16.63
2018-01-11T08:31:23.517Z,21.30
2018-01-11T08:33:51.912Z,21.73
2018-01-11T08:36:20.290Z,16.27
2018-01-11T08:38:49.015Z,18.57
2018-01-11T08:41:17.483Z,15.87
2018-01-11T08:43:45.898Z,17.90
2018-01-11T08:46:14.260Z,16.40
2018-01-11T08:48:42.646Z,16.60
2018-01-11T08:51:11.143Z,19.20
2018-01-11T08:53:39.515Z,13.57
2018-01-11T08:56:07.877Z,13.17
2018-01-11T08:58:36.244Z,9.60
2018-01-11T09:01:04.609Z,11.53
2018-01-11T09:03:33.878Z,14.53
2018-01-11T09:06:02.281Z,13.40
2018-01-11T09:08:30.657Z,12.87
2018-01-11T09:10:59.069Z,9.03
2018-01-11T09:13:27.436Z,10.50
2018-01-11T09:15:55.856Z,7.03
2018-01-11T09:18:24.255Z,6.90
2018-01-11T09:20:52.601Z,6.23
2018-01-11T09:23:20.986Z,5.53
2018-01-11T09:25:49.363Z,8.17
2018-01-11T09:28:17.726Z,10.50
2018-01-11T09:30:46.142Z,10.83
2018-01-11T09:33:14.500Z,17.93
2018-01-11T09:35:42.876Z,20.60
2018-01-11T09:38:11.256Z,18.00
2018-01-11T09:40:39.628Z,18.97
2018-01-11T09:43:08.028Z,18.93
2018-01-11T09:45:36.391Z,12.53
2018-01-11T09:48:04.787Z,12.60
2018-01-11T09:50:33.181Z,12.47
2018-01-11T09:53:01.527Z,11.67
2018-01-11T09:55:29.921Z,9.67
2018-01-11T09:57:58.283Z,8.50
2018-01-11T10:00:26.716Z,9.23
2018-01-11T10:02:55.102Z,7.60
2018-01-11T10:05:23.458Z,8.13
2018-01-11T10:07:51.864Z,5.27
2018-01-11T10:10:20.233Z,5.60
2018-01-11T10:12:48.610Z,4.40
2018-01-11T10:15:16.991Z,4.83
2018-01-11T10:17:45.357Z,2.50
2018-01-11T10:20:13.785Z,2.77
2018-01-11T10:22:42.128Z,3.43
2018-01-11T10:25:10.492Z,3.10
2018-01-11T10:27:38.857Z,3.80
2018-01-11T10:30:07.246Z,4.63
2018-01-11T10:32:35.648Z,4.27
2018-01-11T10:35:04.106Z,4.80
2018-01-11T10:37:32.483Z,3.80
2018-01-11T10:40:00.835Z,4.37
2018-01-11T10:42:29.275Z,3.90
2018-01-11T10:44:57.661Z,3.10
2018-01-11T10:47:26.158Z,0.90
2018-01-11T10:49:54.747Z,0.97
2018-01-11T10:52:23.153Z,1.00
2018-01-11T10:54:51.511Z,1.87
2018-01-11T10:57:19.961Z,11.37
2018-01-11T10:59:48.385Z,2.40
2018-01-11T11:02:22.316Z,2.07
2018-01-11T11:04:51.180Z,2.37
2018-01-11T11:07:19.532Z,1.70
2018-01-11T11:09:47.947Z,2.13
2018-01-11T11:12:16.295Z,2.53
2018-01-11T11:14:44.674Z,2.37
2018-01-11T11:17:13.029Z,2.50
2018-01-11T11:19:41.379Z,2.57
2018-01-11T11:22:09.724Z,3.70
2018-01-11T11:24:38.074Z,1.60
2018-01-11T11:27:06.588Z,1.80
2018-01-11T11:29:34.946Z,2.30
2018-01-11T11:32:03.398Z,2.43
2018-01-11T11:34:31.818Z,2.23
2018-01-11T11:37:00.193Z,1.93
2018-01-11T11:39:28.581Z,3.60
2018-01-11T11:41:56.940Z,1.87
2018-01-11T11:44:25.307Z,2.10
2018-01-11T11:46:53.664Z,2.70
2018-01-11T11:49:22.020Z,2.77
2018-01-11T11:51:50.395Z,3.27
2018-01-11T11:54:18.750Z,2.57
2018-01-11T11:56:47.117Z,2.80
2018-01-11T11:59:15.468Z,2.80
2018-01-11T12:01:43.832Z,5.30
2018-01-11T12:04:12.240Z,2.50
2018-01-11T12:06:40.606Z,2.80
2018-01-11T12:09:08.987Z,2.57
2018-01-11T12:11:37.354Z,2.10
2018-01-11T12:14:05.734Z,3.00
2018-01-11T12:16:34.176Z,2.50
2018-01-11T12:19:02.481Z,2.60
2018-01-11T12:21:30.831Z,4.97
2018-01-11T12:23:59.220Z,3.83
2018-01-11T12:26:27.619Z,2.80
2018-01-11T12:28:55.969Z,3.77
2018-01-11T12:31:24.322Z,4.27
2018-01-11T12:33:52.677Z,3.90
2018-01-11T12:36:21.087Z,4.70
2018-01-11T12:38:50.551Z,2.60
2018-01-11T12:41:18.937Z,2.73
2018-01-11T12:43:47.300Z,3.10
2018-01-11T12:46:15.657Z,3.90
2018-01-11T12:48:44.056Z,3.10
2018-01-11T12:51:12.466Z,2.70
2018-01-11T12:53:40.827Z,3.43
2018-01-11T12:56:09.167Z,7.40
2018-01-11T12:58:37.535Z,2.90
2018-01-11T13:01:05.935Z,2.60
2018-01-11T13:03:34.300Z,2.30
2018-01-11T13:06:02.667Z,2.40
2018-01-11T13:08:31.056Z,2.33
2018-01-11T13:10:59.469Z,3.37
2018-01-11T13:13:27.929Z,2.83
2018-01-11T13:15:56.287Z,2.43
2018-01-11T13:18:24.637Z,2.40
2018-01-11T13:20:53.002Z,3.30
2018-01-11T13:23:21.384Z,2.90
2018-01-11T13:25:49.744Z,2.77
2018-01-11T13:28:18.100Z,3.43
2018-01-11T13:30:46.499Z,3.27
2018-01-11T13:33:14.883Z,2.77
2018-01-11T13:35:44.165Z,4.23
2018-01-11T13:38:12.563Z,3.43
2018-01-11T13:40:40.933Z,4.13
2018-01-11T13:43:09.298Z,12.20
2018-01-11T13:45:37.673Z,5.07
2018-01-11T13:48:06.057Z,5.03
2018-01-11T13:50:34.485Z,3.97
2018-01-11T13:53:02.879Z,3.63
2018-01-11T13:55:31.238Z,3.00
2018-01-11T13:57:59.611Z,4.13
2018-01-11T14:00:28.036Z,4.07
2018-01-11T14:02:56.538Z,5.27
2018-01-11T14:05:24.897Z,4.37
2018-01-11T14:07:53.256Z,5.63
2018-01-11T14:10:21.643Z,4.77
2018-01-11T14:12:50.056Z,5.27
2018-01-11T14:15:18.426Z,6.77
2018-01-11T14:17:46.789Z,5.00
2018-01-11T14:20:15.156Z,4.43
2018-01-11T14:22:43.533Z,5.23
2018-01-11T14:25:11.941Z,3.93
2018-01-11T14:27:40.356Z,4.27
2018-01-11T14:30:08.710Z,4.50
2018-01-11T14:32:37.074Z,5.50
2018-01-11T14:35:05.431Z,3.00
2018-01-11T14:37:33.771Z,2.67
2018-01-11T14:40:02.173Z,6.03
2018-01-11T14:42:30.536Z,3.17
2018-01-11T14:44:58.888Z,5.00
2018-01-11T14:47:27.271Z,7.03
2018-01-11T14:49:55.779Z,4.80
2018-01-11T14:52:24.158Z,4.30
2018-01-11T14:54:52.542Z,4.00
2018-01-11T14:57:20.903Z,6.00
2018-01-11T14:59:49.250Z,8.13
2018-01-11T15:02:17.630Z,6.97
2018-01-11T15:04:46.100Z,2.93
2018-01-11T15:07:15.297Z,2.50
2018-01-11T15:09:43.642Z,3.17
2018-01-11T15:12:11.988Z,3.30
2018-01-11T15:14:40.359Z,3.60
2018-01-11T15:17:08.844Z,3.90
2018-01-11T15:19:37.199Z,7.63
2018-01-11T15:22:05.570Z,6.97
2018-01-11T15:24:34.074Z,5.73
2018-01-11T15:27:02.418Z,7.03
2018-01-11T15:29:30.798Z,9.20
2018-01-11T15:31:59.252Z,8.77
2018-01-11T15:34:27.592Z,10.83
2018-01-11T15:36:55.967Z,9.00
2018-01-11T15:39:24.352Z,5.97
2018-01-11T15:41:52.710Z,7.60
2018-01-11T15:44:21.064Z,9.20
2018-01-11T15:46:49.419Z,9.97
2018-01-11T15:49:17.798Z,12.40
2018-01-11T15:51:46.155Z,10.07
2018-01-11T15:54:14.509Z,6.97
2018-01-11T15:56:42.885Z,8.20
2018-01-11T15:59:11.232Z,8.57
2018-01-11T16:01:39.615Z,8.50
2018-01-11T16:04:07.980Z,11.43
2018-01-11T16:06:36.332Z,10.83
2018-01-11T16:09:04.732Z,12.43
2018-01-11T16:11:33.139Z,14.47
2018-01-11T16:14:01.568Z,13.10
2018-01-11T16:16:30.059Z,19.27
2018-01-11T16:18:58.452Z,19.17
2018-01-11T16:21:26.816Z,18.57
2018-01-11T16:23:55.251Z,19.80
2018-01-11T16:26:23.636Z,18.40
2018-01-11T16:28:52.043Z,18.47
2018-01-11T16:31:20.412Z,19.23
2018-01-11T16:33:48.800Z,16.70
2018-01-11T16:36:17.174Z,27.10
2018-01-11T16:38:45.569Z,21.73
2018-01-11T16:41:13.948Z,20.60
2018-01-11T16:43:42.308Z,22.60
2018-01-11T16:46:10.744Z,25.63
2018-01-11T16:48:39.126Z,26.60
2018-01-11T16:51:07.575Z,27.37
2018-01-11T16:53:35.936Z,21.83
2018-01-11T16:56:04.340Z,24.40
2018-01-11T16:58:32.707Z,25.63
2018-01-11T17:01:01.074Z,26.53
2018-01-11T17:03:29.520Z,20.70
2018-01-11T17:05:57.885Z,27.03
2018-01-11T17:08:26.304Z,25.27
2018-01-11T17:10:54.655Z,27.63
2018-01-11T17:13:23.059Z,22.53
2018-01-11T17:15:51.585Z,22.70
2018-01-11T17:18:19.946Z,20.37
2018-01-11T17:20:48.316Z,21.87
2018-01-11T17:23:17.612Z,18.03
2018-01-11T17:25:45.970Z,20.70
2018-01-11T17:28:14.392Z,22.27
2018-01-11T17:30:42.824Z,23.23
2018-01-11T17:33:11.392Z,19.50
2018-01-11T17:35:39.757Z,19.30
2018-01-11T17:38:08.196Z,19.60
2018-01-11T17:40:36.579Z,22.90
2018-01-11T17:43:04.959Z,25.40
2018-01-11T17:45:33.353Z,23.70
2018-01-11T17:48:01.720Z,25.10
2018-01-11T17:50:30.082Z,20.93
2018-01-11T17:52:58.503Z,20.83
2018-01-11T17:55:26.858Z,25.07
2018-01-11T17:57:55.299Z,19.00
2018-01-11T18:00:23.715Z,21.60
2018-01-11T18:02:52.105Z,20.40
2018-01-11T18:05:20.596Z,23.43
2018-01-11T18:07:48.977Z,20.57
2018-01-11T18:10:17.341Z,23.03
2018-01-11T18:12:45.749Z,18.27
2018-01-11T18:15:14.100Z,19.87
2018-01-11T18:17:42.632Z,17.23
2018-01-11T18:20:11.012Z,14.20
2018-01-11T18:22:39.378Z,14.90
2018-01-11T18:25:07.745Z,13.90
2018-01-11T18:27:36.111Z,12.40
2018-01-11T18:30:04.488Z,14.13
2018-01-11T18:32:32.854Z,18.83
2018-01-11T18:35:01.282Z,15.63
2018-01-11T18:37:29.646Z,17.43
2018-01-11T18:39:58.004Z,15.77
2018-01-11T18:42:26.375Z,18.93
2018-01-11T18:44:54.740Z,18.03
2018-01-11T18:47:23.144Z,17.27
2018-01-11T18:49:51.515Z,15.20
2018-01-11T18:52:19.900Z,19.33
2018-01-11T18:54:48.264Z,22.77
2018-01-11T18:57:16.629Z,19.83
2018-01-11T18:59:45.036Z,25.63
2018-01-11T19:02:13.420Z,22.90
2018-01-11T19:04:41.796Z,33.43
2018-01-11T19:07:10.179Z,35.40
2018-01-11T19:09:38.558Z,30.40
2018-01-11T19:12:06.980Z,30.83
2018-01-11T19:14:35.344Z,28.80
2018-01-11T19:17:03.738Z,42.00
2018-01-11T19:19:32.107Z,46.03
2018-01-11T19:22:00.487Z,33.97
2018-01-11T19:24:28.994Z,47.37
2018-01-11T19:26:57.400Z,37.07
2018-01-11T19:29:25.772Z,39.50
2018-01-11T19:31:54.151Z,35.23
2018-01-11T19:34:22.516Z,37.90
2018-01-11T19:36:50.916Z,37.40
2018-01-11T19:39:19.288Z,41.97
2018-01-11T19:41:47.671Z,49.07
2018-01-11T19:44:16.037Z,46.40
2018-01-11T19:46:44.420Z,38.97
2018-01-11T19:49:12.816Z,42.67
2018-01-11T19:51:41.172Z,44.83
2018-01-11T19:54:09.570Z,41.47
2018-01-11T19:56:38.083Z,41.17
2018-01-11T19:59:06.504Z,40.63
2018-01-11T20:01:34.940Z,43.23
2018-01-11T20:04:03.516Z,40.00
2018-01-11T20:06:31.893Z,38.03
2018-01-11T20:09:00.258Z,38.70
2018-01-11T20:11:28.639Z,41.13
2018-01-11T20:13:57.136Z,42.57
2018-01-11T20:16:25.597Z,37.80
2018-01-11T20:18:53.967Z,36.47
2018-01-11T20:21:22.374Z,36.67
2018-01-11T20:23:50.736Z,42.47
2018-01-11T20:26:19.144Z,44.13
2018-01-11T20:28:47.516Z,35.80
2018-01-11T20:31:15.916Z,37.53
2018-01-11T20:33:44.279Z,35.10
2018-01-11T20:36:12.654Z,35.90
2018-01-11T20:38:41.067Z,37.57
2018-01-11T20:41:09.447Z,36.00
2018-01-11T20:43:37.817Z,41.20
2018-01-11T20:46:06.189Z,37.93
2018-01-11T20:48:34.560Z,44.07
2018-01-11T20:51:02.959Z,33.17
2018-01-11T20:53:31.331Z,39.77
2018-01-11T20:55:59.716Z,41.40
2018-01-11T20:58:28.090Z,34.10
2018-01-11T21:00:56.480Z,32.30
2018-01-11T21:03:24.977Z,33.80
2018-01-11T21:05:53.364Z,43.67
2018-01-11T21:08:21.710Z,37.10
2018-01-11T21:10:50.078Z,37.90
2018-01-11T21:13:18.441Z,39.40
2018-01-11T21:15:46.854Z,43.23
2018-01-11T21:18:15.204Z,45.63
2018-01-11T21:20:43.568Z,45.67
2018-01-11T21:23:11.932Z,58.40
2018-01-11T21:25:40.295Z,49.77
2018-01-11T21:28:08.696Z,49.70
2018-01-11T21:30:37.060Z,54.07
2018-01-11T21:33:05.535Z,56.97
2018-01-11T21:35:34.044Z,53.03
2018-01-11T21:38:02.451Z,54.23
2018-01-11T21:40:30.842Z,50.77
2018-01-11T21:42:59.233Z,51.67
2018-01-11T21:45:27.597Z,54.77
2018-01-11T21:47:55.956Z,55.30
2018-01-11T21:50:24.419Z,54.80
2018-01-11T21:52:52.794Z,59.70
2018-01-11T21:55:21.187Z,53.47
2018-01-11T21:57:49.559Z,51.47
2018-01-11T22:00:17.961Z,54.07
2018-01-11T22:02:46.327Z,75.63
2018-01-11T22:05:14.687Z,57.27
2018-01-11T22:07:43.086Z,60.33
2018-01-11T22:10:11.482Z,64.10
2018-01-11T22:12:39.855Z,65.70
2018-01-11T22:15:08.227Z,61.37
2018-01-11T22:17:36.599Z,71.10
2018-01-11T22:20:05.007Z,63.90
2018-01-11T22:22:33.431Z,57.83
2018-01-11T22:25:01.787Z,59.90
2018-01-11T22:27:30.168Z,58.70
2018-01-11T22:29:58.542Z,47.83
2018-01-11T22:32:26.927Z,55.20
2018-01-11T22:34:55.274Z,62.37
2018-01-11T22:37:23.652Z,63.93
2018-01-11T22:39:52.005Z,72.03
2018-01-11T22:42:20.375Z,65.87
2018-01-11T22:44:48.764Z,81.20
2018-01-11T22:47:17.130Z,92.30
2018-01-11T22:49:45.498Z,75.23
2018-01-11T22:52:13.869Z,84.97
2018-01-11T22:54:42.254Z,72.67
2018-01-11T22:57:10.650Z,81.93
2018-01-11T22:59:39.012Z,77.77
2018-01-11T23:02:07.376Z,90.17
2018-01-11T23:04:35.743Z,90.37
2018-01-11T23:07:04.116Z,91.63
2018-01-11T23:09:32.518Z,103.80
2018-01-11T23:12:00.880Z,83.03
2018-01-11T23:14:29.286Z,86.23
2018-01-11T23:16:57.632Z,73.33
2018-01-11T23:19:25.982Z,77.60
2018-01-11T23:21:54.379Z,88.13
2018-01-11T23:24:22.757Z,77.10
2018-01-11T23:26:51.131Z,75.47
2018-01-11T23:29:19.500Z,74.20
2018-01-11T23:31:47.890Z,72.57
2018-01-11T23:34:16.287Z,77.40
2018-01-11T23:36:44.737Z,81.30
2018-01-11T23:39:13.116Z,87.47
2018-01-11T23:41:41.489Z,92.37
2018-01-11T23:44:09.908Z,95.00
2018-01-11T23:46:38.318Z,83.37
2018-01-11T23:49:06.676Z,90.77
2018-01-11T23:51:35.048Z,87.17
2018-01-11T23:54:03.419Z,86.27
2018-01-11T23:56:31.772Z,91.57
2018-01-11T23:59:00.264Z,89.10
